This is the latest recevied weather packets stored in our database for station/object Wangen. If no packets are shown the sender has not sent any weather packets the latest 10 day(s).
| Time | Temp. | Humidity | Pressure | Rain* | Wind** | Luminosity | Snow |
|---|---|---|---|---|---|---|---|
| 1777915929 | 19.44° C | 50% | 1009.8 hPa | 0 mm | - | - | - |
| 1777914130 | 20° C | 51% | 1009.7 hPa | 0 mm | - | - | - |
| 1777912332 | 20.56° C | 52% | 1009.3 hPa | 0 mm | - | - | - |
| 1777910530 | 22.22° C | 52% | 1009.3 hPa | 0 mm | - | - | - |
| 1777908732 | 23.33° C | 31% | 1009.1 hPa | 0 mm | - | - | - |
| 1777906930 | 22.78° C | 32% | 1009 hPa | 0 mm | - | - | - |
| 1777905129 | 22.78° C | 31% | 1009.2 hPa | 0 mm | - | - | - |
| 1777903330 | 22.78° C | 33% | 1009.2 hPa | 0 mm | - | - | - |
| 1777901532 | 23.33° C | 30% | 1009.5 hPa | 0 mm | - | - | - |
| 1777899735 | 24.44° C | 30% | 1009.7 hPa | 0 mm | - | - | - |
| 1777897935 | 23.33° C | 32% | 1009.9 hPa | 0 mm | - | - | - |
| 1777896130 | 23.33° C | 36% | 1010.1 hPa | 0 mm | - | - | - |
| 1777894331 | 23.33° C | 40% | 1010.3 hPa | 0 mm | - | - | - |
| 1777892530 | 22.78° C | 40% | 1010.6 hPa | 0 mm | - | - | - |
| 1777890735 | 22.22° C | 42% | 1010.9 hPa | 0 mm | - | - | - |
| 1777888932 | 21.67° C | 41% | 1011.2 hPa | 0 mm | - | - | - |
| 1777887130 | 21.67° C | 43% | 1011.5 hPa | 0 mm | - | - | - |
| 1777885331 | 20° C | 48% | 1011.7 hPa | 0 mm | - | - | - |
| 1777883533 | 17.78° C | 56% | 1012.1 hPa | 0 mm | - | - | - |
| 1777881731 | 16.67° C | 61% | 1012.4 hPa | 0 mm | - | - | - |
| 1777879930 | 15° C | 68% | 1012.6 hPa | 0 mm | - | - | - |
| 1777878132 | 14.44° C | 68% | 1012.7 hPa | 0 mm | - | - | - |
| 1777876331 | 13.89° C | 73% | 1012.6 hPa | 0 mm | - | - | - |
| 1777874532 | 12.78° C | 75% | 1012.6 hPa | 0 mm | - | - | - |
| 1777872731 | 11.67° C | 79% | 1012.7 hPa | 0 mm | - | - | - |
* Rain since midnight (hover to see other rain measurements)
** Current wind speed in m/s (hover to see current wind gust speed)